This is the latest recevied weather packets stored in our database for station/object DG1GMY-13. If no packets are shown the sender has not sent any weather packets the latest 10 day(s).
| Time | Temp. | Humidity | Pressure | Rain* | Wind** | Luminosity | Snow |
|---|---|---|---|---|---|---|---|
| 1788154548 | 64° F | 100% | 763.1 mmHg | - | - | - | - |
| 1788152742 | 64° F | 100% | 763 mmHg | - | - | - | - |
| 1788150936 | 64° F | 100% | 762.9 mmHg | - | - | - | - |
| 1788149130 | 64° F | 100% | 762.7 mmHg | - | - | - | - |
| 1788147324 | 64° F | 100% | 762.6 mmHg | - | - | - | - |
| 1788145518 | 63° F | 100% | 762.6 mmHg | - | - | - | - |
| 1788143712 | 63° F | 100% | 762.4 mmHg | - | - | - | - |
| 1788141906 | 63° F | 100% | 762.1 mmHg | - | - | - | - |
| 1788140100 | 64° F | 100% | 762 mmHg | - | - | - | - |
| 1788138294 | 62° F | 100% | 761.8 mmHg | - | - | - | - |
| 1788136488 | 63° F | 100% | 762.1 mmHg | - | - | - | - |
| 1788134682 | 65° F | 100% | 762.2 mmHg | - | - | - | - |
| 1788132877 | 63° F | 100% | 761.5 mmHg | - | - | - | - |
| 1788131071 | 64° F | 94% | 761.8 mmHg | - | - | - | - |
| 1788129265 | 69° F | 67% | 760.3 mmHg | - | - | - | - |
| 1788127459 | 69° F | 65% | 760.6 mmHg | - | - | - | - |
| 1788125653 | 69° F | 63% | 760.5 mmHg | - | - | - | - |
| 1788123847 | 69° F | 64% | 760.6 mmHg | - | - | - | - |
| 1788122041 | 68° F | 65% | 760.7 mmHg | - | - | - | - |
| 1788120235 | 68° F | 65% | 760.9 mmHg | - | - | - | - |
| 1788118429 | 68° F | 65% | 760.9 mmHg | - | - | - | - |
| 1788116623 | 69° F | 66% | 761 mmHg | - | - | - | - |
| 1788114817 | 71° F | 61% | 760.9 mmHg | - | - | - | - |
| 1788113011 | 73° F | 57% | 760.9 mmHg | - | - | - | - |
| 1788111205 | 76° F | 53% | 760.9 mmHg | - | - | - | - |
* Rain since midnight (hover to see other rain measurements)
** Current wind speed in m/s (hover to see current wind gust speed)